createdAt,value
2018-03-23T00:04:02.522Z,14.73
2018-03-23T00:07:07.035Z,13.23
2018-03-23T00:16:02.442Z,12.07
2018-03-23T00:18:35.429Z,13.07
2018-03-23T00:21:08.046Z,11.47
2018-03-23T00:40:12.675Z,11.87
2018-03-23T00:42:45.176Z,10.40
2018-03-23T00:45:17.778Z,11.83
2018-03-23T01:04:23.442Z,11.77
2018-03-23T01:06:56.119Z,12.07
2018-03-23T01:09:28.699Z,12.70
2018-03-23T01:12:01.474Z,11.60
2018-03-23T01:31:04.655Z,14.83
2018-03-23T01:33:37.378Z,13.37
2018-03-23T01:36:09.938Z,11.67
2018-03-23T01:38:42.716Z,13.00
2018-03-23T01:57:50.867Z,13.33
2018-03-23T02:00:23.547Z,14.27
2018-03-23T02:02:56.336Z,13.83
2018-03-23T02:22:00.118Z,15.10
2018-03-23T02:24:32.866Z,15.93
2018-03-23T02:27:05.614Z,14.90
2018-03-23T02:46:09.673Z,16.33
2018-03-23T02:48:42.242Z,18.13
2018-03-23T02:51:15.126Z,14.60
2018-03-23T02:53:47.901Z,13.77
2018-03-23T03:12:53.238Z,12.90
2018-03-23T03:15:26.009Z,15.13
2018-03-23T03:17:58.748Z,17.60
2018-03-23T03:20:31.820Z,13.93
2018-03-23T03:39:35.238Z,14.63
2018-03-23T03:42:07.760Z,15.50
2018-03-23T03:44:40.609Z,14.10
2018-03-23T04:03:46.191Z,15.37
2018-03-23T04:06:18.715Z,16.90
2018-03-23T04:08:51.588Z,14.60
2018-03-23T04:27:55.024Z,15.27
2018-03-23T04:30:28.124Z,15.53
2018-03-23T04:33:00.730Z,14.53
2018-03-23T04:35:33.453Z,16.40
2018-03-23T04:54:42.130Z,15.90
2018-03-23T04:57:14.874Z,19.47
2018-03-23T04:59:47.850Z,18.57
2018-03-23T05:18:55.454Z,20.20
2018-03-23T05:21:29.572Z,18.83
2018-03-23T05:24:02.251Z,16.77
2018-03-23T05:43:11.457Z,16.60
2018-03-23T05:45:44.797Z,17.80
2018-03-23T05:48:17.583Z,17.33
2018-03-23T05:50:50.493Z,18.47
2018-03-23T06:09:54.454Z,16.87
2018-03-23T06:12:27.336Z,15.27
2018-03-23T06:15:00.237Z,17.37
2018-03-23T06:17:33.020Z,18.43
2018-03-23T06:20:05.988Z,16.37
2018-03-23T06:22:38.951Z,18.57
2018-03-23T06:41:42.420Z,17.37
2018-03-23T06:44:16.084Z,17.87
2018-03-23T06:46:50.004Z,17.80
2018-03-23T07:05:53.735Z,16.83
2018-03-23T07:08:26.787Z,16.60
2018-03-23T07:10:59.859Z,19.23
2018-03-23T07:30:04.490Z,19.47
2018-03-23T07:32:37.444Z,18.97
2018-03-23T07:35:14.309Z,19.30
2018-03-23T07:37:49.817Z,18.80
2018-03-23T07:40:22.841Z,17.97
2018-03-23T07:42:56.665Z,18.90
2018-03-23T07:45:33.555Z,16.70
2018-03-23T07:48:06.848Z,21.17
2018-03-23T07:50:39.918Z,21.47
2018-03-23T07:53:13.914Z,17.97
2018-03-23T08:12:21.664Z,20.57
2018-03-23T08:14:57.902Z,19.97
2018-03-23T08:17:30.692Z,21.00
2018-03-23T08:36:39.533Z,18.80
2018-03-23T08:39:15.932Z,25.47
2018-03-23T08:41:48.665Z,19.87
2018-03-23T09:00:55.045Z,21.97
2018-03-23T09:03:31.501Z,19.43
2018-03-23T09:06:07.766Z,22.13
2018-03-23T09:08:40.680Z,22.43
2018-03-23T09:27:46.817Z,20.80
2018-03-23T09:30:19.627Z,18.77
2018-03-23T09:32:58.411Z,17.03
2018-03-23T09:55:07.768Z,14.07
2018-03-23T09:57:40.778Z,15.50
2018-03-23T10:00:14.093Z,16.43
2018-03-23T10:02:47.035Z,16.73
2018-03-23T10:05:19.762Z,15.03
2018-03-23T10:07:53.883Z,14.73
2018-03-23T10:10:29.817Z,13.53
2018-03-23T10:13:03.462Z,14.37
2018-03-23T10:15:37.105Z,11.47
2018-03-23T10:18:13.776Z,12.57
2018-03-23T10:20:46.672Z,12.77
2018-03-23T10:23:19.524Z,12.93
2018-03-23T10:42:22.835Z,12.97
2018-03-23T10:44:55.503Z,11.90
2018-03-23T10:47:28.975Z,12.60
2018-03-23T11:06:31.954Z,8.23
2018-03-23T11:09:08.297Z,11.00
2018-03-23T11:11:41.927Z,7.83
2018-03-23T11:30:46.006Z,9.07
2018-03-23T11:33:22.390Z,10.10
2018-03-23T11:35:59.261Z,15.00
2018-03-23T11:38:32.674Z,11.40
2018-03-23T11:41:05.388Z,10.43
2018-03-23T11:43:43.278Z,8.37
2018-03-23T11:46:22.646Z,9.93
2018-03-23T11:48:58.655Z,12.17
2018-03-23T11:51:31.865Z,10.53
2018-03-23T11:54:04.672Z,8.17
2018-03-23T11:56:41.578Z,10.60
2018-03-23T11:59:14.441Z,13.07
2018-03-23T12:18:25.516Z,12.43
2018-03-23T12:20:58.256Z,15.37
2018-03-23T12:23:31.651Z,10.37
2018-03-23T12:26:08.308Z,11.43
2018-03-23T12:31:18.490Z,11.13
2018-03-23T12:33:51.840Z,13.47
2018-03-23T12:36:27.332Z,11.10
2018-03-23T12:55:33.084Z,14.03
2018-03-23T12:58:09.167Z,13.00
2018-03-23T13:00:41.770Z,10.73
2018-03-23T13:03:14.876Z,12.77
2018-03-23T13:05:51.358Z,10.83
2018-03-23T13:08:24.149Z,10.47
2018-03-23T13:11:00.530Z,10.77
2018-03-23T13:13:33.407Z,10.70
2018-03-23T13:16:07.293Z,11.10
2018-03-23T13:18:44.329Z,10.93
2018-03-23T13:37:48.220Z,10.27
2018-03-23T13:40:23.981Z,7.37
2018-03-23T13:43:00.115Z,8.00
2018-03-23T13:45:36.326Z,10.43
2018-03-23T13:48:09.161Z,8.93
2018-03-23T14:07:18.817Z,8.87
2018-03-23T14:09:51.764Z,12.37
2018-03-23T14:12:25.616Z,13.90
2018-03-23T14:14:58.920Z,8.63
2018-03-23T14:17:31.619Z,8.17
2018-03-23T14:20:04.770Z,9.13
2018-03-23T14:22:42.161Z,8.67
2018-03-23T14:25:14.902Z,10.77
2018-03-23T14:27:50.630Z,8.57
2018-03-23T14:46:54.597Z,8.13
2018-03-23T14:49:27.285Z,8.20
2018-03-23T14:52:00.340Z,5.97
2018-03-23T15:11:06.060Z,7.70
2018-03-23T15:13:39.635Z,8.80
2018-03-23T15:16:12.574Z,6.43
2018-03-23T15:18:52.955Z,7.73
2018-03-23T15:21:25.801Z,6.27
2018-03-23T15:24:01.240Z,6.63
2018-03-23T15:26:42.562Z,7.40
2018-03-23T15:29:19.555Z,7.23
2018-03-23T15:31:54.254Z,11.10
2018-03-23T15:34:27.037Z,8.50
2018-03-23T15:36:59.860Z,7.03
2018-03-23T15:39:32.825Z,7.10
2018-03-23T15:42:06.576Z,5.80
2018-03-23T15:44:39.387Z,5.80
2018-03-23T15:47:12.705Z,6.43
2018-03-23T15:49:45.378Z,6.27
2018-03-23T15:52:18.067Z,8.53
2018-03-23T15:54:53.177Z,5.83
2018-03-23T15:57:26.433Z,6.30
2018-03-23T16:00:02.305Z,6.40
2018-03-23T16:05:15.877Z,8.77
2018-03-23T16:07:50.399Z,8.77
2018-03-23T16:10:25.833Z,17.70
2018-03-23T16:13:00.508Z,7.87
2018-03-23T16:15:44.658Z,6.67
2018-03-23T16:18:17.578Z,12.20
2018-03-23T16:20:51.476Z,11.97
2018-03-23T16:23:24.744Z,7.57
2018-03-23T16:25:57.416Z,8.13
2018-03-23T16:28:35.385Z,9.63
2018-03-23T16:31:08.924Z,9.40
2018-03-23T16:33:45.987Z,7.43
2018-03-23T16:36:21.944Z,5.50
2018-03-23T16:38:55.855Z,6.93
2018-03-23T16:41:30.708Z,9.00
2018-03-23T16:44:04.467Z,7.30
2018-03-23T16:46:41.057Z,10.43
2018-03-23T16:51:57.851Z,8.97
2018-03-23T16:54:33.197Z,10.70
2018-03-23T16:57:12.074Z,9.93
2018-03-23T16:59:45.251Z,10.93
2018-03-23T17:02:19.831Z,9.27
2018-03-23T17:04:53.410Z,13.23
2018-03-23T17:07:30.816Z,12.27
2018-03-23T17:10:04.439Z,13.27
2018-03-23T17:12:38.064Z,12.20
2018-03-23T17:15:17.115Z,13.73
2018-03-23T17:20:33.715Z,14.85
2018-03-23T17:23:06.669Z,12.93
2018-03-23T17:25:41.038Z,13.37
2018-03-23T17:30:54.285Z,11.70
2018-03-23T17:33:44.214Z,13.90
2018-03-23T17:36:18.435Z,12.20
2018-03-23T17:38:53.225Z,13.23
2018-03-23T17:41:30.147Z,12.93
2018-03-23T17:44:05.822Z,17.40
2018-03-23T17:46:40.438Z,13.53
2018-03-23T17:49:14.949Z,13.63
2018-03-23T17:51:48.248Z,14.57
2018-03-23T17:54:22.097Z,15.60
2018-03-23T17:56:54.969Z,13.60
2018-03-23T17:59:33.451Z,15.90
2018-03-23T18:02:07.139Z,14.03
2018-03-23T18:04:40.699Z,15.90
2018-03-23T18:07:16.737Z,17.20
2018-03-23T18:09:51.059Z,17.00
2018-03-23T18:12:24.722Z,15.50
2018-03-23T18:14:58.733Z,13.13
2018-03-23T18:17:31.404Z,14.93
2018-03-23T18:22:53.412Z,20.83
2018-03-23T18:25:27.286Z,16.97
2018-03-23T18:28:00.837Z,15.27
2018-03-23T18:30:34.621Z,14.13
2018-03-23T18:33:18.118Z,20.73
2018-03-23T18:35:56.118Z,18.40
2018-03-23T18:38:29.713Z,27.27
2018-03-23T18:41:02.872Z,17.00
2018-03-23T18:43:35.925Z,14.43
2018-03-23T18:46:09.101Z,15.43
2018-03-23T18:48:42.809Z,13.83
2018-03-23T18:51:19.604Z,18.03
2018-03-23T18:53:52.695Z,20.23
2018-03-23T18:56:25.631Z,16.57
2018-03-23T18:59:00.241Z,18.67
2018-03-23T19:01:39.308Z,20.13
2018-03-23T19:04:12.052Z,17.67
2018-03-23T19:06:46.564Z,24.00
2018-03-23T19:09:20.072Z,24.07
2018-03-23T19:11:52.993Z,21.80
2018-03-23T19:14:26.297Z,21.13
2018-03-23T19:16:59.762Z,20.63
2018-03-23T19:19:33.909Z,21.20
2018-03-23T19:22:18.891Z,21.07
2018-03-23T19:24:52.775Z,21.83
2018-03-23T19:27:25.515Z,17.17
2018-03-23T19:30:02.000Z,20.97
2018-03-23T19:32:35.366Z,20.03
2018-03-23T19:35:09.021Z,22.57
2018-03-23T19:37:46.294Z,23.23
2018-03-23T19:40:19.364Z,22.13
2018-03-23T19:42:53.082Z,21.93
2018-03-23T19:45:28.084Z,26.27
2018-03-23T19:48:00.979Z,27.13
2018-03-23T19:50:45.761Z,25.47
2018-03-23T19:53:24.442Z,26.00
2018-03-23T19:55:59.062Z,21.13
2018-03-23T19:58:32.038Z,20.70
2018-03-23T20:01:05.874Z,21.07
2018-03-23T20:03:39.313Z,20.23
2018-03-23T20:06:12.171Z,22.33
2018-03-23T20:08:46.156Z,18.50
2018-03-23T20:11:19.503Z,21.67
2018-03-23T20:13:57.094Z,21.67
2018-03-23T20:16:29.902Z,23.57
2018-03-23T20:19:02.789Z,24.87
2018-03-23T20:21:36.657Z,27.80
2018-03-23T20:24:13.942Z,22.07
2018-03-23T20:26:47.165Z,24.53
2018-03-23T20:29:20.944Z,24.03
2018-03-23T20:31:59.601Z,20.90
2018-03-23T20:34:32.605Z,32.97
2018-03-23T20:37:05.582Z,35.27
2018-03-23T20:39:39.308Z,49.23
2018-03-23T20:42:12.653Z,37.87
2018-03-23T20:44:46.464Z,39.67
2018-03-23T20:47:20.387Z,37.60
2018-03-23T20:49:54.946Z,32.67
2018-03-23T20:52:28.724Z,25.33
2018-03-23T20:55:01.636Z,23.30
2018-03-23T20:57:34.608Z,26.23
2018-03-23T21:00:08.419Z,23.83
2018-03-23T21:02:42.194Z,21.57
2018-03-23T21:05:15.648Z,22.77
2018-03-23T21:07:48.370Z,21.80
2018-03-23T21:10:20.986Z,21.97
2018-03-23T21:12:53.615Z,20.93
2018-03-23T21:15:27.017Z,21.50
2018-03-23T21:17:59.602Z,20.97
2018-03-23T21:20:32.614Z,27.03
2018-03-23T21:23:05.949Z,19.93
2018-03-23T21:25:38.870Z,21.17
2018-03-23T21:28:12.142Z,19.63
2018-03-23T21:30:44.942Z,19.10
2018-03-23T21:33:18.111Z,19.23
2018-03-23T21:35:51.747Z,20.80
2018-03-23T21:38:24.792Z,17.57
2018-03-23T21:41:03.133Z,20.50
2018-03-23T21:43:35.695Z,17.80
2018-03-23T21:46:08.886Z,25.27
2018-03-23T21:48:41.295Z,20.07
2018-03-23T21:51:14.090Z,16.73
2018-03-23T21:53:46.477Z,14.77
2018-03-23T21:56:19.287Z,14.07
2018-03-23T21:58:57.968Z,13.93
2018-03-23T22:01:31.225Z,16.63
2018-03-23T22:04:03.642Z,15.77
2018-03-23T22:06:36.281Z,17.43
2018-03-23T22:09:15.092Z,17.03
2018-03-23T22:11:49.634Z,14.80
2018-03-23T22:14:29.673Z,12.87
2018-03-23T22:17:03.260Z,15.80
2018-03-23T22:19:37.755Z,12.23
2018-03-23T22:22:10.406Z,17.40
2018-03-23T22:24:43.016Z,19.17
2018-03-23T22:27:18.087Z,15.70
2018-03-23T22:29:50.701Z,19.07
2018-03-23T22:32:23.119Z,13.77
2018-03-23T22:34:56.221Z,15.60
2018-03-23T22:37:28.758Z,14.80
2018-03-23T22:40:01.518Z,15.93
2018-03-23T22:42:34.316Z,14.37
2018-03-23T22:45:07.340Z,13.10
2018-03-23T22:47:39.932Z,12.73
2018-03-23T22:50:12.346Z,14.60
2018-03-23T22:52:45.080Z,13.73
2018-03-23T22:55:18.000Z,13.53
2018-03-23T22:57:50.454Z,13.87
2018-03-23T23:00:25.314Z,13.87
2018-03-23T23:02:57.957Z,13.17
2018-03-23T23:05:30.602Z,12.87
2018-03-23T23:08:05.710Z,11.50
2018-03-23T23:10:39.268Z,11.63
2018-03-23T23:13:13.538Z,13.07
2018-03-23T23:15:46.155Z,10.47
2018-03-23T23:18:18.953Z,11.03
2018-03-23T23:20:51.880Z,12.10
2018-03-23T23:23:27.063Z,10.37
2018-03-23T23:25:59.798Z,12.73
2018-03-23T23:28:33.388Z,10.83
2018-03-23T23:31:08.629Z,11.70
2018-03-23T23:33:41.443Z,10.80
2018-03-23T23:36:15.454Z,10.87
2018-03-23T23:38:50.197Z,11.93
2018-03-23T23:41:23.558Z,12.33
2018-03-23T23:43:56.855Z,11.57
2018-03-23T23:46:29.341Z,13.10
2018-03-23T23:49:01.999Z,12.67
2018-03-23T23:51:34.530Z,11.67
2018-03-23T23:54:09.406Z,9.50
2018-03-23T23:56:42.134Z,13.43
2018-03-23T23:59:14.639Z,12.43
